Time;durP1;ratioP1;P1;durP2;ratioP2;P2;SDS_P1;SDS_P2;PMS_P1;PMS_P2;Temp;Humidity;BMP_temperature;BMP_pressure;BME280_temperature;BME280_humidity;BME280_pressure;Samples;Min_cycle;Max_cycle;Signal;HPM_P1;HPM_P2
2022/08/27 00:01:09;;;;;;;48.40;13.20;;;;;;;29.33;100.00;97480.81;4968714;28;20058;-52
2022/08/27 00:03:35;;;;;;;51.53;17.85;;;;;;;27.73;100.00;97470.94;4970051;28;20065;-54
2022/08/27 00:06:01;;;;;;;55.67;15.40;;;;;;;27.93;100.00;97476.63;4972342;28;20031;-53
2022/08/27 00:08:26;;;;;;;49.15;16.30;;;;;;;28.19;100.00;97473.44;4969346;28;20030;-53
2022/08/27 00:10:52;;;;;;;48.30;11.90;;;;;;;28.94;100.00;97484.78;4969327;28;20038;-53
2022/08/27 00:13:17;;;;;;;55.22;17.85;;;;;;;28.32;100.00;97482.66;4973283;28;20493;-53
2022/08/27 00:15:43;;;;;;;52.28;16.50;;;;;;;27.83;100.00;97484.91;4971615;28;20034;-55
2022/08/27 00:18:08;;;;;;;45.90;14.52;;;;;;;28.17;100.00;97486.19;4973084;28;20037;-57
2022/08/27 00:20:34;;;;;;;42.80;15.05;;;;;;;28.11;100.00;97481.59;4969743;28;20497;-53
2022/08/27 00:22:59;;;;;;;58.47;18.15;;;;;;;28.18;100.00;97482.50;4970791;28;20141;-53
2022/08/27 00:25:26;;;;;;;48.47;17.08;;;;;;;27.74;100.00;97491.38;4968830;28;20415;-56
2022/08/27 00:27:52;;;;;;;45.50;15.80;;;;;;;27.78;100.00;97492.66;4971386;28;20022;-54
2022/08/27 00:30:19;;;;;;;39.15;12.68;;;;;;;28.51;100.00;97500.84;4969340;28;20081;-55
2022/08/27 00:32:45;;;;;;;54.15;17.92;;;;;;;27.96;100.00;97499.56;4970986;28;20480;-54
2022/08/27 00:35:12;;;;;;;56.10;17.58;;;;;;;27.86;100.00;97503.31;4971221;28;20085;-53
2022/08/27 00:37:39;;;;;;;46.50;15.38;;;;;;;27.91;100.00;97501.94;4968803;28;20034;-53
2022/08/27 00:40:06;;;;;;;39.15;13.00;;;;;;;28.55;100.00;97514.75;4971178;28;20030;-53
2022/08/27 00:42:32;;;;;;;37.72;12.07;;;;;;;28.72;100.00;97513.47;4968500;28;20026;-53
2022/08/27 00:44:58;;;;;;;44.03;16.02;;;;;;;28.18;100.00;97509.31;4970680;28;20510;-55
2022/08/27 00:47:26;;;;;;;64.25;18.13;;;;;;;27.98;100.00;97509.06;4970432;28;20029;-54
2022/08/27 00:50:01;;;;;;;57.25;18.52;;;;;;;27.32;100.00;97506.19;4970873;28;20189;-54
2022/08/27 00:52:29;;;;;;;65.43;21.15;;;;;;;28.12;100.00;97518.09;4968136;28;20046;-53
2022/08/27 00:55:08;;;;;;;56.38;18.40;;;;;;;28.01;100.00;97523.94;4971659;28;20309;-52
2022/08/27 00:57:37;;;;;;;56.08;17.20;;;;;;;28.07;100.00;97518.66;4972062;28;20153;-52
2022/08/27 01:00:07;;;;;;;62.92;21.05;;;;;;;27.85;100.00;97525.75;4972218;28;20571;-53
2022/08/27 01:02:32;;;;;;;67.35;20.02;;;;;;;27.96;100.00;97521.81;4968989;28;20087;-55
2022/08/27 01:05:07;;;;;;;37.45;12.15;;;;;;;29.12;100.00;97521.94;4969939;28;20027;-52
2022/08/27 01:07:38;;;;;;;50.83;15.50;;;;;;;28.59;100.00;97527.56;4969443;28;20400;-52
2022/08/27 01:10:07;;;;;;;40.47;13.55;;;;;;;29.35;100.00;97532.50;4969546;28;20194;-53
2022/08/27 01:12:33;;;;;;;59.10;19.60;;;;;;;27.40;100.00;97527.53;4970979;28;20492;-52
2022/08/27 01:15:03;;;;;;;55.00;18.10;;;;;;;27.92;100.00;97531.25;4970010;28;20117;-51
2022/08/27 01:17:30;;;;;;;60.80;17.60;;;;;;;28.36;100.00;97526.84;4969518;28;20047;-52
2022/08/27 01:19:59;;;;;;;44.00;15.88;;;;;;;28.72;100.00;97532.25;4970724;28;20033;-52
2022/08/27 01:22:32;;;;;;;42.25;16.40;;;;;;;28.42;100.00;97531.50;4967595;28;20042;-52
2022/08/27 01:25:04;;;;;;;47.42;17.35;;;;;;;28.83;100.00;97538.97;4967309;28;20022;-53
2022/08/27 01:27:30;;;;;;;52.65;17.02;;;;;;;28.62;100.00;97537.94;4966803;28;20039;-52
2022/08/27 01:29:56;;;;;;;49.22;16.85;;;;;;;28.53;100.00;97538.25;4970855;28;20026;-54
2022/08/27 01:32:32;;;;;;;54.33;18.85;;;;;;;28.77;100.00;97545.13;4968519;28;20101;-52
2022/08/27 01:34:58;;;;;;;47.38;16.40;;;;;;;28.73;100.00;97544.66;4969839;28;20029;-54
2022/08/27 01:37:25;;;;;;;43.42;15.13;;;;;;;28.17;100.00;97549.72;4970007;28;20031;-53
2022/08/27 01:39:52;;;;;;;62.15;18.52;;;;;;;28.86;100.00;97543.97;4969654;28;20049;-55
2022/08/27 01:42:27;;;;;;;36.38;14.55;;;;;;;29.05;100.00;97542.50;4969884;28;20460;-53
2022/08/27 01:44:56;;;;;;;56.22;14.95;;;;;;;28.47;100.00;97539.78;4970300;28;20042;-54
2022/08/27 01:47:25;;;;;;;51.20;17.20;;;;;;;28.12;100.00;97546.75;4967300;28;20520;-53
2022/08/27 01:49:51;;;;;;;76.47;21.90;;;;;;;28.26;100.00;97549.44;4969233;28;20554;-53
2022/08/27 01:52:19;;;;;;;47.50;16.88;;;;;;;28.21;100.00;97543.81;4971591;28;20522;-53
2022/08/27 01:54:45;;;;;;;46.30;16.27;;;;;;;28.75;100.00;97547.16;4970178;28;20373;-54
2022/08/27 01:57:11;;;;;;;53.50;17.98;;;;;;;28.42;100.00;97545.72;4967945;28;20956;-55
2022/08/27 01:59:37;;;;;;;46.15;16.42;;;;;;;28.05;100.00;97547.50;4969469;28;20081;-53
2022/08/27 02:02:04;;;;;;;55.78;16.70;;;;;;;28.39;100.00;97553.31;4965779;28;20559;-52
2022/08/27 02:04:30;;;;;;;54.80;17.33;;;;;;;28.29;100.00;97550.06;4970000;28;20030;-55
2022/08/27 02:06:57;;;;;;;58.28;19.63;;;;;;;28.37;100.00;97552.66;4968986;28;20629;-55
2022/08/27 02:09:23;;;;;;;45.10;16.20;;;;;;;28.35;100.00;97550.16;4971994;28;20627;-52
2022/08/27 02:11:49;;;;;;;46.03;14.90;;;;;;;28.17;100.00;97553.22;4970340;28;20533;-55
2022/08/27 02:14:14;;;;;;;42.92;12.38;;;;;;;28.82;100.00;97556.09;4985839;28;20508;-54
2022/08/27 02:16:40;;;;;;;40.58;15.40;;;;;;;27.76;100.00;97542.94;4970288;28;20805;-52
2022/08/27 02:19:06;;;;;;;50.78;14.73;;;;;;;28.42;100.00;97542.22;4972791;28;20148;-53
2022/08/27 02:21:32;;;;;;;43.25;14.07;;;;;;;27.88;100.00;97541.47;4968804;28;20041;-53
2022/08/27 02:23:57;;;;;;;45.90;14.50;;;;;;;28.38;100.00;97536.41;4968764;28;20035;-55
2022/08/27 02:26:23;;;;;;;49.85;15.25;;;;;;;28.11;100.00;97539.75;4969835;28;20035;-54
2022/08/27 02:28:48;;;;;;;45.28;14.27;;;;;;;28.09;100.00;97539.94;4969307;28;20500;-54
2022/08/27 02:31:14;;;;;;;50.97;15.88;;;;;;;28.31;100.00;97535.47;4968873;28;20411;-53
2022/08/27 02:33:40;;;;;;;40.50;14.05;;;;;;;28.37;100.00;97533.91;4971438;28;20026;-53
2022/08/27 02:36:05;;;;;;;43.25;13.98;;;;;;;29.11;100.00;97531.00;4966495;28;20097;-53
2022/08/27 02:38:31;;;;;;;42.72;14.48;;;;;;;28.56;100.00;97533.34;4969690;28;20854;-55
2022/08/27 02:40:57;;;;;;;51.33;15.05;;;;;;;28.25;100.00;97534.38;4974052;28;20038;-54
2022/08/27 02:43:22;;;;;;;47.42;15.32;;;;;;;28.03;100.00;97532.63;4974494;28;20033;-53
2022/08/27 02:45:48;;;;;;;39.75;12.95;;;;;;;28.34;100.00;97526.22;4972288;28;20035;-53
2022/08/27 02:48:14;;;;;;;37.70;13.60;;;;;;;28.57;100.00;97528.81;4972387;28;20126;-54
2022/08/27 02:50:39;;;;;;;38.30;13.05;;;;;;;28.16;100.00;97531.97;4973159;28;21041;-53
2022/08/27 02:53:06;;;;;;;37.42;13.18;;;;;;;28.23;100.00;97528.38;4972911;28;20030;-53
2022/08/27 02:55:32;;;;;;;45.80;13.80;;;;;;;27.78;100.00;97519.47;4972382;28;20054;-53
2022/08/27 02:57:57;;;;;;;30.00;11.52;;;;;;;29.16;100.00;97530.47;4971400;28;20027;-55
2022/08/27 03:00:24;;;;;;;42.22;14.30;;;;;;;28.53;100.00;97522.97;4972262;28;20070;-53
2022/08/27 03:02:50;;;;;;;52.08;16.95;;;;;;;28.98;100.00;97515.59;4972783;28;20373;-53
2022/08/27 03:05:17;;;;;;;48.45;16.05;;;;;;;28.36;100.00;97513.44;4972592;28;20122;-53
2022/08/27 03:07:43;;;;;;;51.95;15.73;;;;;;;28.43;100.00;97501.81;4971791;28;20081;-53
2022/08/27 03:10:12;;;;;;;55.45;18.98;;;;;;;28.33;100.00;97505.78;4973093;28;20030;-53
2022/08/27 03:12:38;;;;;;;54.85;17.63;;;;;;;28.33;100.00;97500.44;4971684;28;20854;-55
2022/08/27 03:15:09;;;;;;;49.42;17.25;;;;;;;28.23;100.00;97493.50;4973358;28;20461;-53
2022/08/27 03:20:19;;;;;;;53.25;17.90;;;;;;;28.37;100.00;97502.53;4971563;28;20056;-53
2022/08/27 03:22:44;;;;;;;65.72;20.52;;;;;;;28.20;100.00;97501.91;4970980;28;20596;-54
2022/08/27 03:25:11;;;;;;;46.53;17.73;;;;;;;28.09;100.00;97504.25;4973461;28;20051;-53
2022/08/27 03:27:37;;;;;;;44.03;17.00;;;;;;;28.45;100.00;97494.41;4972603;28;20057;-53
2022/08/27 03:30:09;;;;;;;54.13;17.83;;;;;;;28.47;100.00;97496.84;4971473;28;20041;-54
2022/08/27 03:32:35;;;;;;;;;;;;;;;28.35;100.00;97498.38;4971008;28;20105;-53
2022/08/27 03:35:00;;;;;;;35.60;11.27;;;;;;;29.35;100.00;97497.59;4973484;28;19917;-53
2022/08/27 03:37:26;;;;;;;39.03;13.15;;;;;;;28.82;100.00;97495.22;4971134;28;20049;-52
2022/08/27 03:39:52;;;;;;;45.83;13.80;;;;;;;28.87;100.00;97497.31;4970850;28;20730;-53
2022/08/27 03:42:17;;;;;;;44.10;15.75;;;;;;;28.20;100.00;97501.91;4971641;28;20043;-53
2022/08/27 03:44:43;;;;;;;39.92;14.85;;;;;;;28.57;100.00;97512.69;4970988;28;20030;-53
2022/08/27 03:47:09;;;;;;;55.00;17.98;;;;;;;28.77;100.00;97504.88;4969588;28;20098;-54
2022/08/27 03:49:34;;;;;;;42.55;15.65;;;;;;;28.89;100.00;97506.00;4971371;28;20080;-53
2022/08/27 03:52:00;;;;;;;44.33;14.23;;;;;;;29.17;100.00;97507.94;4971908;28;20066;-52
2022/08/27 03:54:26;;;;;;;44.13;14.65;;;;;;;28.68;100.00;97508.69;4969366;28;20035;-53
2022/08/27 03:56:51;;;;;;;51.33;18.25;;;;;;;28.49;100.00;97507.41;4968135;28;20031;-53
2022/08/27 03:59:16;;;;;;;48.88;16.95;;;;;;;28.57;100.00;97518.88;4986602;28;20057;-53
2022/08/27 04:01:43;;;;;;;48.25;15.85;;;;;;;28.26;100.00;97506.53;4970508;28;20043;-52
2022/08/27 04:04:09;;;;;;;49.40;15.00;;;;;;;29.01;100.00;97498.28;4969672;28;20026;-53
2022/08/27 04:06:34;;;;;;;56.15;18.88;;;;;;;26.46;100.00;97486.72;4969403;28;20038;-52
2022/08/27 04:09:00;;;;;;;46.45;15.90;;;;;;;27.26;100.00;97493.56;4971789;28;20180;-52
2022/08/27 04:11:28;;;;;;;51.78;17.65;;;;;;;27.21;100.00;97493.22;4969377;28;20413;-52
2022/08/27 04:13:54;;;;;;;45.00;15.70;;;;;;;26.26;100.00;97481.78;4969524;28;20065;-54
2022/08/27 04:16:19;;;;;;;59.47;18.85;;;;;;;26.52;100.00;97481.50;4971895;28;20039;-53
2022/08/27 04:18:45;;;;;;;37.15;14.90;;;;;;;26.98;100.00;97485.19;4970841;28;20018;-53
2022/08/27 04:21:13;;;;;;;54.58;18.20;;;;;;;26.75;100.00;97477.22;4970771;28;20575;-53
2022/08/27 04:23:40;;;;;;;46.20;16.20;;;;;;;27.25;100.00;97481.97;4971506;28;20544;-55
2022/08/27 04:26:07;;;;;;;51.78;18.42;;;;;;;26.49;100.00;97475.66;4971468;28;20038;-52
2022/08/27 04:28:32;;;;;;;54.42;18.08;;;;;;;26.92;100.00;97481.41;4969690;28;20681;-53
2022/08/27 04:30:58;;;;;;;53.45;17.58;;;;;;;27.53;100.00;97483.22;4970693;28;20042;-53
2022/08/27 04:33:23;;;;;;;55.17;16.90;;;;;;;27.75;100.00;97487.66;4971120;28;20041;-52
2022/08/27 04:36:00;;;;;;;52.30;17.50;;;;;;;27.18;100.00;97491.72;4972099;28;20037;-54
2022/08/27 04:38:25;;;;;;;65.13;19.98;;;;;;;27.17;100.00;97484.72;4970140;28;20038;-52
2022/08/27 04:43:35;;;;;;;67.15;20.30;;;;;;;27.04;100.00;97482.66;4969217;28;20380;-53
2022/08/27 04:46:01;;;;;;;49.33;16.33;;;;;;;26.96;100.00;97482.72;4970357;28;20043;-53
2022/08/27 04:48:26;;;;;;;53.58;18.08;;;;;;;26.55;100.00;97480.31;4972113;28;20031;-53
2022/08/27 04:50:51;;;;;;;53.25;17.27;;;;;;;26.37;100.00;97475.22;4972782;28;20516;-53
2022/08/27 04:53:17;;;;;;;44.00;15.02;;;;;;;26.91;100.00;97485.13;4970375;28;20097;-53
2022/08/27 04:55:43;;;;;;;55.28;17.80;;;;;;;26.58;100.00;97485.31;4969403;28;20046;-53
2022/08/27 04:58:08;;;;;;;74.57;22.73;;;;;;;26.65;100.00;97475.59;4970801;28;20070;-53
2022/08/27 05:00:40;;;;;;;58.78;18.55;;;;;;;26.61;100.00;97479.63;4969437;28;20108;-54
2022/08/27 05:03:06;;;;;;;77.45;22.65;;;;;;;26.40;100.00;97482.91;4969572;28;20046;-53
2022/08/27 05:05:31;;;;;;;62.95;21.27;;;;;;;26.64;100.00;97484.63;4971527;28;20038;-55
2022/08/27 05:07:57;;;;;;;46.58;16.67;;;;;;;27.22;100.00;97497.53;4969245;28;20478;-55
2022/08/27 05:10:22;;;;;;;43.80;16.98;;;;;;;26.98;100.00;97496.72;4969835;28;20095;-53
2022/08/27 05:12:48;;;;;;;69.93;22.08;;;;;;;26.60;100.00;97499.38;4969115;28;20182;-54
2022/08/27 05:15:13;;;;;;;44.30;16.27;;;;;;;26.99;100.00;97508.28;4968448;28;20126;-54
2022/08/27 05:17:39;;;;;;;57.92;18.65;;;;;;;27.44;100.00;97507.44;4970144;28;20486;-54
2022/08/27 05:20:05;;;;;;;36.78;12.32;;;;;;;27.98;100.00;97519.78;4968182;28;20130;-54
2022/08/27 05:22:30;;;;;;;39.95;15.27;;;;;;;27.66;100.00;97515.56;4971274;28;20031;-53
2022/08/27 05:24:55;;;;;;;55.72;18.27;;;;;;;27.68;100.00;97518.91;4968266;28;20069;-54
2022/08/27 05:27:21;;;;;;;37.67;14.15;;;;;;;27.33;100.00;97523.91;4968259;28;20055;-53
2022/08/27 05:29:46;;;;;;;45.50;15.93;;;;;;;27.36;100.00;97520.88;4967828;28;20146;-58
2022/08/27 05:32:12;;;;;;;54.80;16.77;;;;;;;27.41;100.00;97517.69;4970777;28;20074;-55
2022/08/27 05:34:37;;;;;;;40.13;14.07;;;;;;;27.99;100.00;97520.59;4969909;28;20039;-53
2022/08/27 05:37:03;;;;;;;46.05;14.52;;;;;;;27.84;100.00;97524.09;4966842;28;20649;-55
2022/08/27 05:39:28;;;;;;;45.78;15.90;;;;;;;27.78;100.00;97532.88;4967561;28;20063;-55
2022/08/27 05:41:56;;;;;;;46.58;16.40;;;;;;;27.73;100.00;97521.84;4971706;28;20046;-53
2022/08/27 05:44:22;;;;;;;41.75;14.35;;;;;;;27.84;100.00;97521.41;4970962;28;20485;-53
2022/08/27 05:46:47;;;;;;;40.63;14.70;;;;;;;27.06;100.00;97514.59;4970420;28;20133;-53
2022/08/27 05:49:13;;;;;;;48.05;14.23;;;;;;;27.72;100.00;97522.88;4970265;28;20530;-54
2022/08/27 05:51:39;;;;;;;44.20;16.27;;;;;;;27.57;100.00;97516.66;4970370;28;20484;-53
2022/08/27 05:54:09;;;;;;;49.08;15.90;;;;;;;28.06;100.00;97524.22;4969955;28;20038;-53
2022/08/27 05:56:37;;;;;;;47.28;14.95;;;;;;;28.10;100.00;97528.19;4970321;28;20045;-53
2022/08/27 06:01:49;;;;;;;45.05;16.08;;;;;;;27.38;100.00;97526.88;4969340;28;20080;-55
2022/08/27 06:04:16;;;;;;;46.60;16.25;;;;;;;27.33;100.00;97526.59;4969853;28;20596;-53
2022/08/27 06:06:42;;;;;;;39.72;15.57;;;;;;;27.37;100.00;97533.28;4971555;28;20070;-53
2022/08/27 06:09:10;;;;;;;42.10;15.32;;;;;;;27.68;100.00;97530.47;4968618;28;20027;-53
2022/08/27 06:11:36;;;;;;;37.05;13.10;;;;;;;27.76;100.00;97537.56;4967999;28;20127;-54
2022/08/27 06:14:02;;;;;;;45.80;16.02;;;;;;;27.17;100.00;97532.06;4970463;28;20127;-53
2022/08/27 06:16:28;;;;;;;53.08;16.65;;;;;;;26.91;100.00;97531.41;4973356;28;20073;-54
2022/08/27 06:18:56;;;;;;;43.42;15.45;;;;;;;27.21;100.00;97530.69;4973117;28;20117;-54
2022/08/27 06:21:22;;;;;;;42.03;13.32;;;;;;;27.61;100.00;97532.22;4973298;28;20046;-53
2022/08/27 06:23:48;;;;;;;37.65;13.50;;;;;;;27.08;100.00;97528.63;4974993;28;20022;-53
2022/08/27 06:26:15;;;;;;;43.75;15.48;;;;;;;26.99;100.00;97529.69;4974672;28;20066;-54
2022/08/27 06:28:41;;;;;;;42.55;15.27;;;;;;;27.56;100.00;97536.44;4976140;28;20057;-54
2022/08/27 06:31:10;;;;;;;48.45;15.05;;;;;;;28.10;100.00;97541.56;4970799;28;20058;-55
2022/08/27 06:33:37;;;;;;;46.88;14.40;;;;;;;27.68;100.00;97534.97;4972920;28;20048;-54
2022/08/27 06:36:06;;;;;;;45.25;16.13;;;;;;;27.34;100.00;97536.31;4972771;28;20054;-55
2022/08/27 06:38:32;;;;;;;48.45;15.88;;;;;;;27.76;100.00;97540.25;4975552;28;20100;-53
2022/08/27 06:40:57;;;;;;;38.47;11.27;;;;;;;28.49;100.00;97548.50;4973715;28;20066;-55
2022/08/27 06:43:24;;;;;;;43.60;15.02;;;;;;;27.44;100.00;97539.56;4975179;28;20059;-53
2022/08/27 06:45:50;;;;;;;43.55;13.98;;;;;;;27.53;100.00;97539.47;4972445;28;20034;-53
2022/08/27 06:48:16;;;;;;;38.22;11.48;;;;;;;28.46;100.00;97538.13;4971505;28;20085;-53
2022/08/27 06:50:42;;;;;;;46.88;14.50;;;;;;;28.20;100.00;97544.81;4971550;28;20046;-52
2022/08/27 06:53:09;;;;;;;45.55;16.92;;;;;;;27.52;100.00;97540.50;4971441;28;20109;-53
2022/08/27 06:55:42;;;;;;;44.25;15.38;;;;;;;27.61;100.00;97544.78;4972352;28;20031;-55
2022/08/27 06:58:08;;;;;;;46.08;16.60;;;;;;;27.33;100.00;97548.00;4971889;28;20026;-54
2022/08/27 07:00:33;;;;;;;46.25;17.42;;;;;;;26.88;100.00;97541.66;4971526;28;20069;-53
2022/08/27 07:03:00;;;;;;;52.03;17.70;;;;;;;27.19;100.00;97543.44;4971284;28;20023;-53
2022/08/27 07:05:26;;;;;;;46.95;16.55;;;;;;;27.66;100.00;97559.28;4972193;28;20108;-53
2022/08/27 07:07:51;;;;;;;52.72;16.20;;;;;;;27.07;100.00;97549.22;4973063;28;20022;-53
2022/08/27 07:10:17;;;;;;;47.15;17.45;;;;;;;27.30;100.00;97548.41;4972115;28;20044;-54
2022/08/27 07:12:42;;;;;;;39.70;16.48;;;;;;;26.96;100.00;97549.59;4973226;28;20110;-53
2022/08/27 07:15:08;;;;;;;60.88;18.85;;;;;;;27.15;100.00;97556.34;4974281;28;20499;-52
2022/08/27 07:17:34;;;;;;;48.15;16.88;;;;;;;27.08;100.00;97560.75;4972718;28;20037;-54
2022/08/27 07:19:59;;;;;;;56.35;19.15;;;;;;;26.59;100.00;97556.50;4973140;28;20061;-53
2022/08/27 07:22:24;;;;;;;45.50;17.42;;;;;;;27.61;100.00;97550.13;4969736;28;20515;-54
2022/08/27 07:24:52;;;;;;;39.33;15.88;;;;;;;27.87;100.00;97561.25;4972941;28;20062;-54
2022/08/27 07:27:17;;;;;;;46.13;17.05;;;;;;;27.64;100.00;97558.63;4970583;28;20523;-54
2022/08/27 07:29:43;;;;;;;40.25;15.35;;;;;;;27.59;100.00;97565.53;4973636;28;20038;-53
2022/08/27 07:32:08;;;;;;;45.30;16.70;;;;;;;27.23;100.00;97552.78;4971949;28;20072;-53
2022/08/27 07:34:34;;;;;;;53.22;17.55;;;;;;;27.34;100.00;97555.03;4970712;28;20185;-53
2022/08/27 07:36:59;;;;;;;50.33;16.95;;;;;;;27.80;100.00;97559.47;4968615;28;20105;-55
2022/08/27 07:39:24;;;;;;;61.72;18.67;;;;;;;27.47;100.00;97559.78;4969212;28;20026;-54
2022/08/27 07:44:33;;;;;;;47.72;16.27;;;;;;;27.57;100.00;97560.38;4971438;28;20416;-55
2022/08/27 07:46:59;;;;;;;49.28;17.60;;;;;;;27.20;100.00;97555.78;4970664;28;20488;-53
2022/08/27 07:49:27;;;;;;;59.78;18.85;;;;;;;27.41;100.00;97555.16;4972480;28;20030;-53
2022/08/27 07:51:52;;;;;;;42.60;15.13;;;;;;;27.62;100.00;97567.84;4970281;28;20030;-53
2022/08/27 07:54:20;;;;;;;49.65;17.40;;;;;;;27.22;100.00;97575.19;4971610;28;20023;-54
2022/08/27 07:56:46;;;;;;;47.47;15.75;;;;;;;27.57;100.00;97575.59;4977482;28;20508;-56
2022/08/27 07:59:12;;;;;;;44.00;15.70;;;;;;;28.02;100.00;97580.03;4971499;28;20027;-54
2022/08/27 08:01:37;;;;;;;43.28;14.48;;;;;;;27.97;100.00;97578.94;4971132;28;20108;-54
2022/08/27 08:04:03;;;;;;;40.60;14.40;;;;;;;27.38;100.00;97567.06;4985080;28;20049;-53
2022/08/27 08:06:28;;;;;;;53.72;16.13;;;;;;;27.71;100.00;97566.75;4968906;28;20034;-54
2022/08/27 08:08:54;;;;;;;46.75;17.00;;;;;;;27.69;100.00;97571.47;4972516;28;20038;-54
2022/08/27 08:11:19;;;;;;;37.20;15.05;;;;;;;28.05;100.00;97587.72;4968995;28;20041;-54
2022/08/27 08:13:46;;;;;;;43.72;15.23;;;;;;;28.87;100.00;97591.25;4972287;28;20058;-55
2022/08/27 08:16:12;;;;;;;41.33;14.70;;;;;;;27.94;100.00;97592.69;4969602;28;20449;-53
2022/08/27 08:18:39;;;;;;;47.78;14.63;;;;;;;28.20;100.00;97585.03;4972166;28;20033;-54
2022/08/27 08:21:07;;;;;;;48.05;13.80;;;;;;;28.42;100.00;97585.13;4969480;28;20077;-54
2022/08/27 08:23:33;;;;;;;40.80;14.43;;;;;;;28.37;100.00;97592.91;4968701;28;20444;-54
2022/08/27 08:26:00;;;;;;;34.25;12.63;;;;;;;28.44;100.00;97600.00;4969871;28;20479;-54
2022/08/27 08:28:27;;;;;;;37.72;13.32;;;;;;;28.16;100.00;97596.31;4968814;28;20058;-55
2022/08/27 08:30:54;;;;;;;47.20;13.77;;;;;;;28.47;100.00;97604.16;4967685;28;20557;-53
2022/08/27 08:33:20;;;;;;;33.97;13.13;;;;;;;29.41;100.00;97601.56;4983330;28;20129;-56
2022/08/27 08:35:47;;;;;;;39.80;13.02;;;;;;;28.82;100.00;97602.56;4969013;28;20057;-54
2022/08/27 08:38:13;;;;;;;36.10;11.93;;;;;;;29.81;100.00;97611.00;4969200;28;20493;-54
2022/08/27 08:40:45;;;;;;;34.85;11.00;;;;;;;29.52;100.00;97607.41;4970670;28;20093;-56
2022/08/27 08:43:25;;;;;;;45.03;13.38;;;;;;;28.96;100.00;97603.53;4970681;28;20756;-55
2022/08/27 08:45:53;;;;;;;40.20;12.50;;;;;;;29.64;100.00;97605.88;4968695;28;20035;-53
2022/08/27 08:48:21;;;;;;;44.35;11.98;;;;;;;29.33;100.00;97609.72;4969495;28;20100;-55
2022/08/27 08:50:55;;;;;;;40.20;12.00;;;;;;;29.52;100.00;97602.03;4975165;28;20051;-55
2022/08/27 08:53:51;;;;;;;36.25;12.10;;;;;;;29.49;100.00;97597.91;4970026;28;20089;-53
2022/08/27 08:56:24;;;;;;;30.50;11.02;;;;;;;29.73;100.00;97599.34;4969983;28;20070;-54
2022/08/27 08:59:02;;;;;;;48.08;12.98;;;;;;;29.56;100.00;97595.28;4969386;28;20030;-54
2022/08/27 09:01:28;;;;;;;28.60;10.98;;;;;;;29.02;100.00;97589.38;4968847;28;20062;-54
2022/08/27 09:03:56;;;;;;;40.17;12.25;;;;;;;29.37;100.00;97588.69;4970548;28;20097;-55
2022/08/27 09:06:33;;;;;;;30.45;10.45;;;;;;;29.71;100.00;97596.00;4969971;28;20030;-54
2022/08/27 09:09:07;;;;;;;33.67;11.10;;;;;;;30.02;100.00;97600.19;4969205;28;20038;-56
2022/08/27 09:11:43;;;;;;;34.35;11.65;;;;;;;29.68;100.00;97601.78;4968843;28;20038;-53
2022/08/27 09:14:25;;;;;;;37.97;11.57;;;;;;;29.37;100.00;97600.28;4968388;28;20027;-54
2022/08/27 09:16:50;;;;;;;38.40;11.75;;;;;;;29.41;100.00;97608.78;4969663;28;20505;-55
2022/08/27 09:19:16;;;;;;;32.88;11.27;;;;;;;29.42;100.00;97602.38;4969353;28;20034;-54
2022/08/27 09:21:44;;;;;;;35.25;11.80;;;;;;;29.78;100.00;97606.84;4968939;28;20034;-56
2022/08/27 09:24:51;;;;;;;36.45;11.15;;;;;;;29.03;100.00;97615.19;4969735;28;20037;-54
2022/08/27 09:27:18;;;;;;;41.33;11.95;;;;;;;29.52;100.00;97616.34;4969201;28;20161;-54
2022/08/27 09:29:53;;;;;;;36.47;11.02;;;;;;;29.58;100.00;97606.66;4967944;28;20026;-54
2022/08/27 09:32:24;;;;;;;33.00;10.80;;;;;;;30.50;100.00;97608.38;4968513;28;20058;-55
2022/08/27 09:34:50;;;;;;;29.58;10.80;;;;;;;30.03;100.00;97607.22;4968651;28;20074;-55
2022/08/27 09:37:19;;;;;;;32.17;10.85;;;;;;;30.41;100.00;97614.94;4969139;28;20567;-53
2022/08/27 09:39:44;;;;;;;25.73;7.65;;;;;;;30.73;100.00;97609.91;4968201;28;20408;-54
2022/08/27 09:42:24;;;;;;;27.08;9.75;;;;;;;30.28;100.00;97622.91;4968658;28;20053;-55
2022/08/27 09:44:52;;;;;;;28.23;10.30;;;;;;;29.96;100.00;97609.88;4971100;28;20030;-53
2022/08/27 09:47:18;;;;;;;28.83;9.80;;;;;;;30.58;100.00;97609.22;4965153;28;20039;-53
2022/08/27 09:49:43;;;;;;;46.92;11.13;;;;;;;30.66;100.00;97617.13;4985454;28;20030;-54
2022/08/27 09:52:27;;;;;;;26.27;9.52;;;;;;;30.25;100.00;97618.75;4971927;28;20038;-52
2022/08/27 09:54:55;;;;;;;32.67;11.00;;;;;;;30.43;100.00;97615.56;4973709;28;20030;-53
2022/08/27 09:57:36;;;;;;;28.25;10.30;;;;;;;30.70;100.00;97619.22;4972171;28;20030;-53
2022/08/27 10:00:08;;;;;;;31.88;10.40;;;;;;;30.18;100.00;97618.72;4974824;28;20030;-53
2022/08/27 10:02:33;;;;;;;36.40;10.45;;;;;;;30.89;100.00;97619.50;4970822;28;20113;-53
2022/08/27 10:05:12;;;;;;;33.90;10.40;;;;;;;30.97;100.00;97616.63;4973096;28;20060;-54
2022/08/27 10:07:56;;;;;;;34.85;10.57;;;;;;;30.97;100.00;97607.75;4972072;28;20098;-54
2022/08/27 10:10:43;;;;;;;30.02;10.75;;;;;;;30.29;100.00;97614.66;4973880;28;20210;-53
2022/08/27 10:13:23;;;;;;;34.05;11.88;;;;;;;30.30;100.00;97610.09;4972347;28;20031;-55
2022/08/27 10:16:09;;;;;;;36.42;12.20;;;;;;;30.48;100.00;97610.44;4970706;28;20776;-57
2022/08/27 10:18:55;;;;;;;35.65;11.35;;;;;;;30.85;100.00;97616.38;4971957;28;20527;-54
2022/08/27 10:21:33;;;;;;;33.90;11.50;;;;;;;30.63;100.00;97618.34;4966715;28;20038;-56
2022/08/27 10:24:16;;;;;;;36.90;11.38;;;;;;;30.54;100.00;97623.06;4969986;28;20110;-55
2022/08/27 10:27:13;;;;;;;35.83;11.65;;;;;;;30.14;100.00;97617.47;4972109;28;20083;-55
2022/08/27 10:29:56;;;;;;;32.78;11.60;;;;;;;30.56;100.00;97623.69;4973073;28;20158;-55
2022/08/27 10:32:31;;;;;;;31.58;11.38;;;;;;;31.11;100.00;97612.13;4971557;28;20039;-53
2022/08/27 10:35:12;;;;;;;42.38;12.82;;;;;;;30.70;100.00;97621.09;4970171;28;20092;-55
2022/08/27 10:37:53;;;;;;;31.70;10.50;;;;;;;32.16;100.00;97619.69;4986837;28;20050;-53
2022/08/27 10:40:33;;;;;;;29.70;10.48;;;;;;;31.23;100.00;97615.91;4989001;28;20270;-53
2022/08/27 10:43:42;;;;;;;38.85;10.52;;;;;;;31.75;100.00;97615.34;4986127;28;20803;-54
2022/08/27 10:46:36;;;;;;;41.55;10.40;;;;;;;31.96;100.00;97620.50;4971109;28;20110;-54
2022/08/27 10:49:25;;;;;;;32.53;9.90;;;;;;;30.77;100.00;97616.56;4969849;28;20038;-54
2022/08/27 10:52:09;;;;;;;34.80;10.70;;;;;;;31.13;100.00;97620.84;4971756;28;20039;-54
2022/08/27 10:54:46;;;;;;;32.97;9.50;;;;;;;30.96;100.00;97624.94;4973155;28;20030;-53
2022/08/27 10:57:36;;;;;;;30.15;9.02;;;;;;;31.32;100.00;97614.66;4972818;28;20031;-53
2022/08/27 11:00:10;;;;;;;26.90;8.65;;;;;;;31.87;100.00;97621.75;4970835;28;20030;-54
2022/08/27 11:02:53;;;;;;;30.85;9.00;;;;;;;32.97;100.00;97616.50;4971108;28;20128;-53
2022/08/27 11:05:30;;;;;;;30.38;8.55;;;;;;;33.23;100.00;97615.59;4973989;28;20022;-53
2022/08/27 11:08:02;;;;;;;24.00;7.25;;;;;;;34.72;100.00;97609.50;4970569;28;20081;-54
2022/08/27 11:10:40;;;;;;;28.27;7.82;;;;;;;35.32;96.97;97605.97;4970154;28;20031;-53
2022/08/27 11:13:11;;;;;;;23.27;7.50;;;;;;;34.32;99.74;97612.63;4971950;28;20483;-53
2022/08/27 11:15:42;;;;;;;21.70;7.38;;;;;;;33.48;95.05;97612.09;4970362;28;20054;-54
2022/08/27 11:18:38;;;;;;;24.90;8.38;;;;;;;34.11;96.69;97608.44;4969942;28;20532;-53
2022/08/27 11:21:33;;;;;;;28.02;8.25;;;;;;;32.97;100.00;97605.72;4971579;28;20046;-54
2022/08/27 11:24:29;;;;;;;23.88;7.88;;;;;;;34.02;100.00;97608.97;4968750;28;20031;-55
2022/08/27 11:26:58;;;;;;;25.92;8.05;;;;;;;33.43;100.00;97601.09;4968934;28;20043;-53
2022/08/27 11:29:30;;;;;;;21.98;7.28;;;;;;;32.64;100.00;97600.47;4971041;28;20080;-53